Flight Track Log - Related Links

Times and Time Zones

All times are in EDT time to prevent confusion due to time zone crossing. See the XOJ552 flight status page for this flight to view local times or setup timezone preferences in your user account.

Time Position Orientation Groundspeed Altitude Reporting Facility
EDT Latitude Longitude Course Direction KTS MPH feet Rate Location/Type
Thu 01:40:26 PM 48.3275 -114.2428 225° Southwest 192 221 4,300  Level Seattle Center
Thu 01:41:27 PM 48.3317 -114.3086 275° West 236 272 7,800 3,443 Climbing Seattle Center
Thu 01:42:28 PM 48.2861 -114.3825 227° Southwest 238 274 11,300 3,415 Climbing Seattle Center
Thu 01:43:00 PM 47.6966 -115.2402 233° Southwest  Level FlightAware Approximate
Thu 01:43:30 PM 48.2317 -114.4667 226° Southwest 269 310 14,800  Level Seattle Center
Thu 01:44:00 PM 47.6229 -115.3658 225° Southwest  Level FlightAware Approximate
Thu 01:44:31 PM 48.1747 -114.5558 226° Southwest 294 338 18,600  Level Seattle Center
Thu 01:45:00 PM 47.5438 -115.4843 225° Southwest  Level FlightAware Approximate
Thu 01:45:32 PM 48.1175 -114.6458 226° Southwest 301 346 21,600  Level Seattle Center
Thu 01:46:33 PM 48.0531 -114.7456 226° Southwest 329 379 24,300 2,832 Climbing Seattle Center
Thu 01:47:37 PM 47.9722 -114.8692 226° Southwest 350 403 27,500 2,571 Climbing Salt Lake Center
Thu 01:48:39 PM 47.9019 -114.9756 225° Southwest 361 415 29,700 2,250 Climbing Salt Lake Center
Thu 01:49:37 PM 47.8283 -115.0878 226° Southwest 374 430 32,000 2,067 Climbing Seattle Center
Thu 01:50:38 PM 47.7547 -115.2022 226° Southwest 381 438 33,800 976 Climbing Seattle Center
Thu 01:51:40 PM 47.6736 -115.3250 226° Southwest 400 460 34,000 93 Climbing Seattle Center
Thu 01:52:47 PM 47.5706 -115.4783 225° Southwest 435 501 34,000 93 Level Salt Lake Center
Thu 01:53:49 PM 47.4842 -115.6058 225° Southwest 439 505 34,200 931 Climbing Salt Lake Center
Thu 01:54:43 PM 47.4036 -115.6747 210° Southwest 428 493 35,800 2,172 Climbing Seattle Center
Thu 01:55:45 PM 47.2925 -115.7283 198° South 422 486 38,400 2,488 Climbing Seattle Center
Thu 01:56:46 PM 47.1892 -115.7783 198° South 394 453 40,900 1,770 Climbing Seattle Center
Thu 01:57:47 PM 47.0719 -115.8356 198° South 374 430 42,000 787 Climbing Seattle Center
Thu 01:58:48 PM 46.9728 -115.8858 199° South 376 433 42,500 488 Climbing Seattle Center
Thu 01:59:50 PM 46.8692 -115.9361 198° South 387 445 43,000 244 Climbing Seattle Center
Thu 02:00:51 PM 46.7628 -115.9886 199° South 399 459 43,000 197 Level Seattle Center
Thu 02:01:52 PM 46.6536 -116.0419 199° South 411 473 43,400 439 Climbing Seattle Center
Thu 02:02:54 PM 46.5439 -116.0947 198° South 413 475 43,900 488 Climbing Seattle Center
Thu 02:03:55 PM 46.4350 -116.1464 198° South 412 474 44,400 492 Climbing Seattle Center
Thu 02:04:56 PM 46.3272 -116.1986 199° South 410 472 44,900 293 Climbing Seattle Center
Thu 02:05:58 PM 46.2181 -116.2506 198° South 412 474 45,000 49 Climbing Seattle Center
Thu 02:06:59 PM 46.1064 -116.3025 198° South 419 482 45,000  Level Seattle Center
Thu 02:08:00 PM 45.9703 -116.3675 198° South 428 493 45,000  Level Seattle Center
Thu 02:09:01 PM 45.8578 -116.4203 198° South 427 491 45,000  Level Seattle Center
Thu 02:10:03 PM 45.7464 -116.4733 198° South 424 488 45,000  Level Seattle Center
Thu 02:11:04 PM 45.6344 -116.5267 198° South 423 487 45,000  Level Seattle Center
Thu 02:12:05 PM 45.5239 -116.5772 198° South 420 483 45,000  Level Seattle Center
Thu 02:13:07 PM 45.4147 -116.6286 198° South 415 478 45,000  Level Seattle Center
Thu 02:14:08 PM 45.3056 -116.6792 198° South 413 475 45,000  Level Seattle Center
Thu 02:15:09 PM 45.1944 -116.7278 197° South 417 480 45,000  Level Seattle Center
Thu 02:16:11 PM 45.0831 -116.7800 198° South 420 483 45,000  Level Seattle Center
Thu 02:17:12 PM 44.9714 -116.8314 198° South 422 486 45,000  Level Seattle Center
Thu 02:18:14 PM 44.8367 -116.8917 198° South 425 489 45,000  Level Seattle Center
Thu 02:19:15 PM 44.7236 -116.9428 198° South 425 489 45,000  Level Seattle Center
Thu 02:20:16 PM 44.6125 -116.9936 198° South 423 487 45,000  Level Seattle Center
Thu 02:21:18 PM 44.5067 -117.0408 198° South 421 484 45,000  Level Seattle Center
Thu 02:22:19 PM 44.3950 -117.0903 198° South 420 483 45,000  Level Seattle Center
Thu 02:23:21 PM 44.2850 -117.1406 198° South 418 481 45,000  Level Seattle Center
Thu 02:24:22 PM 44.1528 -117.1983 197° South 416 479 45,000  Level Seattle Center
Thu 02:25:23 PM 44.0411 -117.2475 198° South 417 480 45,000  Level Seattle Center
Thu 02:25:53 PM 43.9753 -117.2761 197° South 425 489 45,000  Level Salt Lake Center
Thu 02:26:55 PM 43.8667 -117.3228 197° South 423 487 45,000  Level Salt Lake Center
Thu 02:27:57 PM 43.7494 -117.3744 198° South 425 489 45,000  Level Salt Lake Center
Thu 02:28:59 PM 43.6356 -117.4228 197° South 413 475 45,000  Level Salt Lake Center
Thu 02:30:01 PM 43.5183 -117.4694 196° South 419 482 45,000  Level Salt Lake Center
Thu 02:31:03 PM 43.4011 -117.5119 195° South 419 482 45,000  Level Salt Lake Center
Thu 02:32:05 PM 43.2911 -117.5519 195° South 420 483 45,000  Level Salt Lake Center
Thu 02:33:07 PM 43.1642 -117.5972 195° South 420 483 45,000  Level Salt Lake Center
Thu 02:34:09 PM 43.0458 -117.6406 195° South 424 488 45,000  Level Salt Lake Center
Thu 02:35:11 PM 42.9275 -117.6839 195° South 425 489 45,000  Level Salt Lake Center
Thu 02:36:13 PM 42.8150 -117.7231 194° South 432 497 45,000  Level Salt Lake Center
Thu 02:37:15 PM 42.7044 -117.7633 195° South 434 499 45,000  Level Salt Lake Center
Thu 02:38:17 PM 42.5739 -117.8100 195° South 434 499 45,000  Level Salt Lake Center
Thu 02:39:19 PM 42.4614 -117.8503 195° South 436 502 45,000  Level Salt Lake Center
Thu 02:40:21 PM 42.3306 -117.8969 195° South 438 504 45,000  Level Salt Lake Center
Thu 02:41:23 PM 42.2192 -117.9364 195° South 433 498 45,000  Level Salt Lake Center
Thu 02:42:25 PM 42.0867 -117.9822 194° South 440 506 45,000  Level Salt Lake Center
Thu 02:43:27 PM 41.9725 -118.0228 195° South 442 509 45,000  Level Salt Lake Center
Thu 02:44:29 PM 41.8406 -118.0689 195° South 439 505 45,000  Level Salt Lake Center
Thu 02:45:31 PM 41.7275 -118.1075 194° South 438 504 45,000  Level Salt Lake Center
Thu 02:46:33 PM 41.5967 -118.1525 194° South 435 501 45,000  Level Salt Lake Center
Thu 02:47:35 PM 41.4853 -118.1900 194° South 432 497 45,000  Level Salt Lake Center
Thu 02:48:37 PM 41.3561 -118.2339 194° South 430 495 45,000  Level Salt Lake Center
Thu 02:49:39 PM 41.2453 -118.2719 194° South 430 495 45,000  Level Salt Lake Center
Thu 02:50:41 PM 41.1161 -118.3169 195° South 430 495 45,000  Level Salt Lake Center
Thu 02:51:43 PM 41.0064 -118.3528 194° South 427 491 45,000  Level Salt Lake Center
Thu 02:52:45 PM 40.8967 -118.3900 194° South 426 490 45,000  Level Salt Lake Center
Thu 02:53:47 PM 40.7686 -118.4325 194° South 425 489 45,000  Level Salt Lake Center
Thu 02:54:49 PM 40.6594 -118.4692 194° South 424 488 45,000  Level Salt Lake Center
Thu 02:55:51 PM 40.5325 -118.5119 194° South 423 487 45,000  Level Salt Lake Center
Thu 02:56:53 PM 40.4244 -118.5486 194° South 421 484 45,000  Level Salt Lake Center
Thu 02:57:55 PM 40.2969 -118.5861 193° South 421 484 45,000  Level Salt Lake Center
Thu 02:58:57 PM 40.1797 -118.6153 191° South 424 488 45,000  Level Salt Lake Center
Thu 02:59:59 PM 40.0633 -118.6439 191° South 426 490 45,000  Level Salt Lake Center
Thu 03:01:01 PM 39.9461 -118.6733 191° South 427 491 45,000  Level Salt Lake Center
Thu 03:02:04 PM 39.8297 -118.7025 191° South 427 491 45,000  Level Salt Lake Center
Thu 03:03:06 PM 39.6897 -118.7361 190° South 426 490 45,000  Level Salt Lake Center
Thu 03:04:13 PM 39.5764 -118.7656 191° South 421 484 45,000  Level Oakland Center
Thu 03:05:14 PM 39.4489 -118.7969 191° South 430 495 45,000  Level Oakland Center
Thu 03:06:16 PM 39.3319 -118.8264 191° South 431 496 45,000  Level Oakland Center
Thu 03:07:17 PM 39.2122 -118.8553 191° South 436 502 45,000  Level Oakland Center
Thu 03:08:19 PM 39.0897 -118.8844 190° South 430 495 45,000  Level Oakland Center
Thu 03:09:20 PM 38.9708 -118.9139 191° South 434 499 45,000  Level Oakland Center
Thu 03:10:22 PM 38.8525 -118.9428 191° South 434 499 45,000  Level Oakland Center
Thu 03:11:24 PM 38.7128 -118.9772 191° South 428 493 45,000  Level Oakland Center
Thu 03:12:25 PM 38.5964 -119.0053 191° South 426 490 45,000  Level Oakland Center
Thu 03:13:27 PM 38.4806 -119.0328 191° South 425 489 45,000  Level Oakland Center
Thu 03:14:28 PM 38.3650 -119.0600 190° South 422 486 45,000  Level Oakland Center
Thu 03:15:30 PM 38.2486 -119.0883 191° South 423 487 45,000  Level Oakland Center
Thu 03:16:31 PM 38.1203 -119.1197 191° South 423 487 45,000  Level Oakland Center
Thu 03:17:33 PM 38.0033 -119.1458 190° South 426 490 45,000 -390 Level Oakland Center
Thu 03:18:34 PM 37.8875 -119.1747 191° South 424 488 44,200 -927 Descending Oakland Center
Thu 03:19:36 PM 37.7706 -119.2011 190° South 424 488 43,100 -976 Descending Oakland Center
Thu 03:20:37 PM 37.6564 -119.2294 191° South 418 481 42,200 -927 Descending Oakland Center
Thu 03:21:39 PM 37.5469 -119.2561 191° South 417 480 41,200 -1,016 Descending Oakland Center
Thu 03:22:41 PM 37.4311 -119.2831 190° South 422 486 40,100 -846 Descending Oakland Center
Thu 03:24:15 PM 37.2386 -119.3269 190° South 444 511 39,000 -423 Descending Los Angeles Center
Thu 03:25:17 PM 37.1236 -119.3536 190° South 425 489 39,000  Level Los Angeles Center
Thu 03:26:19 PM 36.9811 -119.3914 192° South 435 501 39,000  Level Los Angeles Center
Thu 03:27:21 PM 36.8586 -119.4181 190° South 445 512 39,000  Level Los Angeles Center
Thu 03:28:24 PM 36.7361 -119.4447 190° South 448 516 39,000 -288 Level Los Angeles Center
Thu 03:29:26 PM 36.6133 -119.4733 191° South 448 516 38,400 -919 Descending Los Angeles Center
Thu 03:30:28 PM 36.4944 -119.4994 190° South 438 504 37,100 -1,597 Descending Los Angeles Center
Thu 03:31:30 PM 36.3519 -119.5311 190° South 434 499 35,100 -1,839 Descending Los Angeles Center
Thu 03:32:32 PM 36.2311 -119.5583 190° South 438 504 33,300 -1,742 Descending Los Angeles Center
Thu 03:33:34 PM 36.1103 -119.5867 191° South 441 507 31,500 -1,113 Descending Los Angeles Center
Thu 03:34:36 PM 35.9894 -119.6128 190° South 441 507 31,000 -242 Descending Los Angeles Center
Thu 03:35:38 PM 35.8658 -119.6194 183° South 441 507 31,000 -288 Level Los Angeles Center
Thu 03:36:41 PM 35.7394 -119.6244 182° South 449 517 30,400 -768 Descending Los Angeles Center
Thu 03:37:43 PM 35.6142 -119.6286 182° South 448 516 29,400 -677 Descending Los Angeles Center
Thu 03:38:45 PM 35.4594 -119.6342 182° South 459 528 29,000 -339 Descending Los Angeles Center
Thu 03:39:47 PM 35.3275 -119.6400 182° South 468 539 28,700 -677 Descending Los Angeles Center
Thu 03:40:49 PM 35.2078 -119.5983 164° South 465 535 27,600 -1,500 Descending Los Angeles Center
Thu 03:41:51 PM 35.1031 -119.5094 145° Southeast 458 527 25,600 -2,129 Descending Los Angeles Center
Thu 03:42:53 PM 35.0047 -119.4264 145° Southeast 435 501 23,200 -2,256 Descending Los Angeles Center
Thu 03:43:56 PM 34.9078 -119.3461 146° Southeast 423 487 20,900 -2,400 Descending Los Angeles Center
Thu 03:44:58 PM 34.7947 -119.2500 145° Southeast 415 478 18,200 -2,323 Descending Los Angeles Center
Thu 03:46:00 PM 34.7097 -119.1781 145° Southeast 379 436 16,100 -1,935 Descending Los Angeles Center
Thu 03:47:02 PM 34.6297 -119.1122 146° Southeast 333 383 14,200 -1,597 Descending Los Angeles Center
Thu 03:48:04 PM 34.5703 -119.0594 144° Southeast 310 357 12,800 -1,500 Descending Los Angeles Center
Thu 03:49:06 PM 34.4889 -118.9936 146° Southeast 293 337 11,100 -1,355 Descending Los Angeles Center
Thu 03:50:08 PM 34.4297 -118.9383 142° Southeast 271 312 10,000 -1,161 Descending Los Angeles Center
Thu 03:51:10 PM 34.4292 -118.8372 90° East 306 352 8,700 -1,258 Descending Los Angeles Center
Thu 03:52:12 PM 34.4344 -118.7350 86° East 306 352 7,400 -1,248 Descending Los Angeles Center
Thu 03:53:15 PM 34.4250 -118.6414 97° East 285 328 6,100 -672 Descending Los Angeles Center
Thu 03:54:17 PM 34.3825 -118.5547 121° Southeast 236 272 6,000 -581 Descending Los Angeles Center
Thu 03:55:19 PM 34.3422 -118.5100 137° Southeast 213 245 4,900 -1,299 Descending Los Angeles Center
Thu 03:55:54 PM 34.3167 -118.5000 162° South 170 196 3,900 -1,516 Descending Southern California TRACON
Thu 03:56:54 PM 34.2667 -118.5000 180° South 136 157 2,500 -1,250 Descending Southern California TRACON
Thu 03:57:54 PM 34.2333 -118.5000 180° South 127 146 1,400 -1,100 Descending Southern California TRACON
Thu 04:00:00 PM 34.2098 -118.4900 180° South  Level Estimated
Thu 04:07:00 PM 34.2098 -118.4900 180° South  Level Estimated

Login

Don't have an account? Register now (free) for customized features, flight alerts, and more!